Thursday, January 17, 2019, 8:25 PM EST
Back to Local

KBLM, Belmar-farmingdale

Location: Farmingdale, NJ, United States Lat: 40.183
Local Time: 8:25 PM EST ( 1:25 GMT) Lon: -74.133
Time Zone: US/Eastern Elev: 157 ft

Show me the last for .
Show Decoded

2019-01-17 19:56 METAR KBLM 180056Z AUTO 34004KT 10SM FEW032 M02/M06 A3030 RMK AO2 SLP265
                 T10171061 FZRANO =
2019-01-17 19:10 METAR KBLM 180010Z AUTO 35003KT 10SM SCT028 M01/M06 A3031 RMK AO2 FZRANO =
2019-01-17 18:56 METAR KBLM 172356Z AUTO 00000KT 10SM BKN028 M01/M06 A3031 RMK AO2 SLP270
                 T10111061 11011 21017 56005 FZRANO =
2019-01-17 18:27 METAR KBLM 172327Z AUTO 03003KT 10SM BKN028 M01/M07 A3031 RMK AO2 FZRANO =
2019-01-17 17:56 METAR KBLM 172256Z AUTO 00000KT 10SM CLR M01/M07 A3031 RMK AO2 SLP270 T10111067
                 FZRANO =
2019-01-17 16:56 METAR KBLM 172156Z AUTO 10006KT 10SM CLR M01/M07 A3031 RMK AO2 SLP270 T10111067
                 FZRANO =
2019-01-17 15:56 METAR KBLM 172056Z AUTO 11005KT 10SM BKN120 M01/M07 A3032 RMK AO2 SLP274
                 T10111072 58010 FZRANO =
2019-01-17 14:56 METAR KBLM 171956Z AUTO 10008KT 10SM CLR M02/M08 A3033 RMK AO2 SLP277 T10171078
                 FZRANO =
2019-01-17 13:56 METAR KBLM 171856Z AUTO 11008KT 10SM CLR M02/M09 A3035 RMK AO2 SLP283 T10171094
                 FZRANO =
2019-01-17 12:56 METAR KBLM 171756Z AUTO 10007KT 10SM CLR M02/M10 A3035 RMK AO2 SLP284 T10171100
                 11006 21044 58023 FZRANO =
2019-01-17 11:56 METAR KBLM 171656Z AUTO VRB03KT 10SM CLR M01/M10 A3039 RMK AO2 SLP296 T10061100
                 FZRANO =
2019-01-17 10:56 METAR KBLM 171556Z AUTO 00000KT 10SM CLR M02/M10 A3042 RMK AO2 SLP307 T10171100
                 FZRANO =
2019-01-17 09:56 METAR KBLM 171456Z AUTO 34006KT 10SM CLR M01/M11 A3042 RMK AO2 SLP308 T10111111
                 53017 FZRANO =
2019-01-17 08:56 METAR KBLM 171356Z AUTO 36007KT 10SM CLR M03/M13 A3041 RMK AO2 SLP301 T10281128
                 FZRANO =
2019-01-17 07:56 METAR KBLM 171256Z AUTO 33006KT 10SM CLR M04/M14 A3039 RMK AO2 SLP295 T10391139
                 FZRANO =
2019-01-17 06:56 METAR KBLM 171156Z AUTO 33006KT 10SM CLR M04/M14 A3037 RMK AO2 SLP291 T10391144
                 11006 21039 53019 FZRANO =
2019-01-17 05:56 METAR KBLM 171056Z AUTO 33007KT 10SM CLR M03/M12 A3035 RMK AO2 SLP284 T10281122
                 FZRANO =
2019-01-17 04:56 METAR KBLM 170956Z AUTO 34009KT 10SM CLR M02/M10 A3033 RMK AO2 SLP277 T10221100
                 FZRANO =
2019-01-17 03:56 METAR KBLM 170856Z AUTO 34007KT 10SM CLR M02/M08 A3032 RMK AO2 SLP272 T10221083
                 51019 FZRANO =
2019-01-17 02:56 METAR KBLM 170756Z AUTO 33010KT 10SM CLR M01/M08 A3030 RMK AO2 SLP267 T10111078
                 FZRANO =
2019-01-17 01:56 METAR KBLM 170656Z AUTO 32006KT 10SM CLR M01/M07 A3029 RMK AO2 SLP262 T10111067
                 FZRANO =
2019-01-17 00:56 METAR KBLM 170556Z AUTO 27005KT 10SM CLR M01/M05 A3026 RMK AO2 SLP252 T10061050
                 10017 21011 51017 FZRANO =
2019-01-16 22:56 METAR KBLM 170356Z AUTO 25006KT 10SM OVC050 02/M05 A3023 RMK AO2 SLP242
                 T00171050 FZRANO =
2019-01-16 21:56 METAR KBLM 170256Z AUTO 26005KT 10SM BKN055 02/M06 A3021 RMK AO2 SLP235
                 T00171056 53019 FZRANO =
2019-01-16 20:56 METAR KBLM 170156Z AUTO 24005KT 10SM OVC050 02/M06 A3018 RMK AO2 SLP225
                 T00171056 FZRANO =

Support USWX by starting your Amazon purchase here.